This is the latest recevied weather packets stored in our database for station/object VU3CAM-13. If no packets are shown the sender has not sent any weather packets the latest 10 day(s).
| Time | Temp. | Humidity | Pressure | Rain* | Wind** | Luminosity | Snow |
|---|---|---|---|---|---|---|---|
| 1788491524 | 26.11° C | 69% | 913.1 hPa | - | - | - | - |
| 1788490924 | 26.67° C | 69% | 913 hPa | - | - | - | - |
| 1788490324 | 25.56° C | 71% | 913 hPa | - | - | - | - |
| 1788489124 | 24.44° C | 75% | 912.8 hPa | - | - | - | - |
| 1788488524 | 23.89° C | 76% | 912.6 hPa | - | - | - | - |
| 1788487924 | 24.44° C | 74% | 912.6 hPa | - | - | - | - |
| 1788487324 | 25° C | 73% | 912.4 hPa | - | - | - | - |
| 1788486724 | 24.44° C | 74% | 912.3 hPa | - | - | - | - |
| 1788485524 | 24.44° C | 74% | 912 hPa | - | - | - | - |
| 1788484924 | 24.44° C | 74% | 911.8 hPa | - | - | - | - |
| 1788484324 | 25° C | 72% | 911.8 hPa | - | - | - | - |
| 1788483724 | 26.11° C | 69% | 911.7 hPa | - | - | - | - |
| 1788469324 | 27.22° C | 66% | 910.6 hPa | - | - | - | - |
| 1788468724 | 26.67° C | 67% | 910.8 hPa | - | - | - | - |
| 1788448323 | 28.33° C | 61% | 911.3 hPa | - | - | - | - |
| 1788447123 | 28.89° C | 60% | 911.1 hPa | - | - | - | - |
| 1788444723 | 28.89° C | 58% | 910.8 hPa | - | - | - | - |
| 1788441723 | 29.44° C | 58% | 910.3 hPa | - | - | - | - |
| 1788439323 | 28.89° C | 59% | 909.9 hPa | - | - | - | - |
| 1788436923 | 30° C | 54% | 909.3 hPa | - | - | - | - |
| 1788435723 | 29.44° C | 55% | 909.1 hPa | - | - | - | - |
| 1788435123 | 29.44° C | 55% | 909 hPa | - | - | - | - |
| 1788434523 | 29.44° C | 56% | 908.8 hPa | - | - | - | - |
| 1788433323 | 28.33° C | 57% | 908.8 hPa | - | - | - | - |
| 1788432123 | 28.33° C | 57% | 908.8 hPa | - | - | - | - |
* Rain since midnight (hover to see other rain measurements)
** Current wind speed in m/s (hover to see current wind gust speed)